sensor_id;sensor_type;location;lat;lon;timestamp;temperature;humidity
30999;DHT22;20549;50.042;8.968;2024-01-15T00:00:23;1.80;85.70
30999;DHT22;20549;50.042;8.968;2024-01-15T00:02:50;1.80;85.70
30999;DHT22;20549;50.042;8.968;2024-01-15T00:05:16;1.80;85.80
30999;DHT22;20549;50.042;8.968;2024-01-15T00:07:43;1.80;85.90
30999;DHT22;20549;50.042;8.968;2024-01-15T00:10:09;1.80;85.70
30999;DHT22;20549;50.042;8.968;2024-01-15T00:12:36;1.80;85.60
30999;DHT22;20549;50.042;8.968;2024-01-15T00:15:03;1.80;85.40
30999;DHT22;20549;50.042;8.968;2024-01-15T00:17:29;1.80;85.40
30999;DHT22;20549;50.042;8.968;2024-01-15T00:19:56;1.80;85.50
30999;DHT22;20549;50.042;8.968;2024-01-15T00:22:24;1.70;85.40
30999;DHT22;20549;50.042;8.968;2024-01-15T00:24:49;1.70;85.70
30999;DHT22;20549;50.042;8.968;2024-01-15T00:27:16;1.70;86.40
30999;DHT22;20549;50.042;8.968;2024-01-15T00:29:42;1.70;85.70
30999;DHT22;20549;50.042;8.968;2024-01-15T00:32:09;1.70;85.80
30999;DHT22;20549;50.042;8.968;2024-01-15T00:34:35;1.80;85.90
30999;DHT22;20549;50.042;8.968;2024-01-15T00:37:02;1.80;86.00
30999;DHT22;20549;50.042;8.968;2024-01-15T00:39:28;1.80;86.00
30999;DHT22;20549;50.042;8.968;2024-01-15T00:41:55;1.70;86.00
30999;DHT22;20549;50.042;8.968;2024-01-15T00:44:22;1.80;86.10
30999;DHT22;20549;50.042;8.968;2024-01-15T00:46:48;1.70;86.20
30999;DHT22;20549;50.042;8.968;2024-01-15T00:49:15;1.70;86.30
30999;DHT22;20549;50.042;8.968;2024-01-15T00:51:41;1.80;86.60
30999;DHT22;20549;50.042;8.968;2024-01-15T00:54:08;1.70;86.70
30999;DHT22;20549;50.042;8.968;2024-01-15T00:56:35;1.70;86.80
30999;DHT22;20549;50.042;8.968;2024-01-15T00:59:01;1.70;86.80
30999;DHT22;20549;50.042;8.968;2024-01-15T01:01:28;1.70;87.00
30999;DHT22;20549;50.042;8.968;2024-01-15T01:03:54;1.70;87.00
30999;DHT22;20549;50.042;8.968;2024-01-15T01:06:21;1.60;87.00
30999;DHT22;20549;50.042;8.968;2024-01-15T01:08:48;1.60;87.10
30999;DHT22;20549;50.042;8.968;2024-01-15T01:11:17;1.60;87.10
30999;DHT22;20549;50.042;8.968;2024-01-15T01:13:41;1.60;87.30
30999;DHT22;20549;50.042;8.968;2024-01-15T01:16:07;1.60;87.40
30999;DHT22;20549;50.042;8.968;2024-01-15T01:18:34;1.60;87.50
30999;DHT22;20549;50.042;8.968;2024-01-15T01:21:00;1.50;87.50
30999;DHT22;20549;50.042;8.968;2024-01-15T01:23:27;1.50;87.80
30999;DHT22;20549;50.042;8.968;2024-01-15T01:25:54;1.50;87.90
30999;DHT22;20549;50.042;8.968;2024-01-15T01:28:20;1.50;88.10
30999;DHT22;20549;50.042;8.968;2024-01-15T01:30:47;1.60;88.40
30999;DHT22;20549;50.042;8.968;2024-01-15T01:33:13;1.50;88.50
30999;DHT22;20549;50.042;8.968;2024-01-15T01:35:40;1.60;88.70
30999;DHT22;20549;50.042;8.968;2024-01-15T01:38:07;1.60;88.60
30999;DHT22;20549;50.042;8.968;2024-01-15T01:40:33;1.60;88.80
30999;DHT22;20549;50.042;8.968;2024-01-15T01:43:00;1.60;88.90
30999;DHT22;20549;50.042;8.968;2024-01-15T01:45:26;1.60;88.90
30999;DHT22;20549;50.042;8.968;2024-01-15T01:47:53;1.70;88.90
30999;DHT22;20549;50.042;8.968;2024-01-15T01:50:20;1.70;88.80
30999;DHT22;20549;50.042;8.968;2024-01-15T01:52:46;1.70;88.90
30999;DHT22;20549;50.042;8.968;2024-01-15T01:55:13;1.70;89.00
30999;DHT22;20549;50.042;8.968;2024-01-15T01:57:39;1.70;88.90
30999;DHT22;20549;50.042;8.968;2024-01-15T02:00:06;1.70;88.90
30999;DHT22;20549;50.042;8.968;2024-01-15T02:02:33;1.70;88.90
30999;DHT22;20549;50.042;8.968;2024-01-15T02:04:59;1.70;88.90
30999;DHT22;20549;50.042;8.968;2024-01-15T02:07:26;1.70;88.80
30999;DHT22;20549;50.042;8.968;2024-01-15T02:09:53;1.70;88.80
30999;DHT22;20549;50.042;8.968;2024-01-15T02:12:19;1.70;88.70
30999;DHT22;20549;50.042;8.968;2024-01-15T02:14:46;1.70;88.80
30999;DHT22;20549;50.042;8.968;2024-01-15T02:17:12;1.70;88.60
30999;DHT22;20549;50.042;8.968;2024-01-15T02:19:39;1.70;88.60
30999;DHT22;20549;50.042;8.968;2024-01-15T02:22:05;1.70;88.40
30999;DHT22;20549;50.042;8.968;2024-01-15T02:24:32;1.70;88.40
30999;DHT22;20549;50.042;8.968;2024-01-15T02:26:59;1.70;88.50
30999;DHT22;20549;50.042;8.968;2024-01-15T02:29:25;1.70;88.50
30999;DHT22;20549;50.042;8.968;2024-01-15T02:31:52;1.70;88.50
30999;DHT22;20549;50.042;8.968;2024-01-15T02:34:18;1.70;89.00
30999;DHT22;20549;50.042;8.968;2024-01-15T02:36:45;1.70;88.30
30999;DHT22;20549;50.042;8.968;2024-01-15T02:39:12;1.70;88.30
30999;DHT22;20549;50.042;8.968;2024-01-15T02:41:38;1.70;88.30
30999;DHT22;20549;50.042;8.968;2024-01-15T02:44:05;1.70;88.20
30999;DHT22;20549;50.042;8.968;2024-01-15T02:46:31;1.70;88.40
30999;DHT22;20549;50.042;8.968;2024-01-15T02:48:58;1.70;88.40
30999;DHT22;20549;50.042;8.968;2024-01-15T02:51:24;1.70;88.50
30999;DHT22;20549;50.042;8.968;2024-01-15T02:53:51;1.70;88.40
30999;DHT22;20549;50.042;8.968;2024-01-15T02:56:18;1.70;88.50
30999;DHT22;20549;50.042;8.968;2024-01-15T02:58:44;1.70;88.60
30999;DHT22;20549;50.042;8.968;2024-01-15T03:01:11;1.80;88.70
30999;DHT22;20549;50.042;8.968;2024-01-15T03:03:39;1.80;88.70
30999;DHT22;20549;50.042;8.968;2024-01-15T03:06:04;1.80;88.50
30999;DHT22;20549;50.042;8.968;2024-01-15T03:08:31;1.90;88.60
30999;DHT22;20549;50.042;8.968;2024-01-15T03:10:57;1.90;88.50
30999;DHT22;20549;50.042;8.968;2024-01-15T03:13:24;1.90;88.50
30999;DHT22;20549;50.042;8.968;2024-01-15T03:15:50;1.90;88.50
30999;DHT22;20549;50.042;8.968;2024-01-15T03:18:17;2.00;88.50
30999;DHT22;20549;50.042;8.968;2024-01-15T03:20:44;1.90;88.60
30999;DHT22;20549;50.042;8.968;2024-01-15T03:23:10;2.00;88.70
30999;DHT22;20549;50.042;8.968;2024-01-15T03:25:37;2.00;88.60
30999;DHT22;20549;50.042;8.968;2024-01-15T03:28:03;2.00;88.60
30999;DHT22;20549;50.042;8.968;2024-01-15T03:30:30;2.00;88.20
30999;DHT22;20549;50.042;8.968;2024-01-15T03:32:56;2.00;88.80
30999;DHT22;20549;50.042;8.968;2024-01-15T03:35:23;2.00;88.70
30999;DHT22;20549;50.042;8.968;2024-01-15T03:37:50;2.00;88.80
30999;DHT22;20549;50.042;8.968;2024-01-15T03:40:16;2.00;88.80
30999;DHT22;20549;50.042;8.968;2024-01-15T03:42:43;2.00;88.90
30999;DHT22;20549;50.042;8.968;2024-01-15T03:45:09;2.00;89.10
30999;DHT22;20549;50.042;8.968;2024-01-15T03:47:36;2.00;89.40
30999;DHT22;20549;50.042;8.968;2024-01-15T03:50:03;1.90;89.20
30999;DHT22;20549;50.042;8.968;2024-01-15T03:52:29;1.90;89.40
30999;DHT22;20549;50.042;8.968;2024-01-15T03:54:56;1.90;89.70
30999;DHT22;20549;50.042;8.968;2024-01-15T03:57:25;1.90;89.70
30999;DHT22;20549;50.042;8.968;2024-01-15T03:59:51;1.90;89.70
30999;DHT22;20549;50.042;8.968;2024-01-15T04:02:18;1.80;89.50
30999;DHT22;20549;50.042;8.968;2024-01-15T04:04:45;1.80;89.80
30999;DHT22;20549;50.042;8.968;2024-01-15T04:07:11;1.80;89.90
30999;DHT22;20549;50.042;8.968;2024-01-15T04:09:38;1.80;89.90
30999;DHT22;20549;50.042;8.968;2024-01-15T04:12:04;1.80;90.10
30999;DHT22;20549;50.042;8.968;2024-01-15T04:14:31;1.80;90.20
30999;DHT22;20549;50.042;8.968;2024-01-15T04:16:58;1.80;90.10
30999;DHT22;20549;50.042;8.968;2024-01-15T04:19:24;1.80;90.40
30999;DHT22;20549;50.042;8.968;2024-01-15T04:21:51;1.80;90.20
30999;DHT22;20549;50.042;8.968;2024-01-15T04:24:17;1.80;90.30
30999;DHT22;20549;50.042;8.968;2024-01-15T04:26:44;1.90;90.40
30999;DHT22;20549;50.042;8.968;2024-01-15T04:29:11;1.90;90.50
30999;DHT22;20549;50.042;8.968;2024-01-15T04:31:37;1.90;90.50
30999;DHT22;20549;50.042;8.968;2024-01-15T04:34:04;2.00;90.60
30999;DHT22;20549;50.042;8.968;2024-01-15T04:36:30;2.00;90.60
30999;DHT22;20549;50.042;8.968;2024-01-15T04:38:57;2.00;90.50
30999;DHT22;20549;50.042;8.968;2024-01-15T04:41:23;2.00;90.50
30999;DHT22;20549;50.042;8.968;2024-01-15T04:43:50;2.10;90.40
30999;DHT22;20549;50.042;8.968;2024-01-15T04:46:17;2.10;90.50
30999;DHT22;20549;50.042;8.968;2024-01-15T04:48:43;2.10;90.40
30999;DHT22;20549;50.042;8.968;2024-01-15T04:51:10;2.10;90.40
30999;DHT22;20549;50.042;8.968;2024-01-15T04:53:36;2.10;90.40
30999;DHT22;20549;50.042;8.968;2024-01-15T04:56:03;2.10;90.40
30999;DHT22;20549;50.042;8.968;2024-01-15T04:58:30;2.10;90.40
30999;DHT22;20549;50.042;8.968;2024-01-15T05:00:56;2.10;90.20
30999;DHT22;20549;50.042;8.968;2024-01-15T05:03:23;2.10;90.30
30999;DHT22;20549;50.042;8.968;2024-01-15T05:05:49;2.20;90.30
30999;DHT22;20549;50.042;8.968;2024-01-15T05:08:16;2.20;90.20
30999;DHT22;20549;50.042;8.968;2024-01-15T05:10:43;2.20;90.20
30999;DHT22;20549;50.042;8.968;2024-01-15T05:13:09;2.20;90.20
30999;DHT22;20549;50.042;8.968;2024-01-15T05:15:36;2.20;90.20
30999;DHT22;20549;50.042;8.968;2024-01-15T05:18:02;2.20;90.30
30999;DHT22;20549;50.042;8.968;2024-01-15T05:20:29;2.30;90.20
30999;DHT22;20549;50.042;8.968;2024-01-15T05:22:55;2.30;90.20
30999;DHT22;20549;50.042;8.968;2024-01-15T05:25:22;2.30;90.20
30999;DHT22;20549;50.042;8.968;2024-01-15T05:27:52;2.30;90.00
30999;DHT22;20549;50.042;8.968;2024-01-15T05:30:18;2.30;90.00
30999;DHT22;20549;50.042;8.968;2024-01-15T05:32:45;2.30;90.00
30999;DHT22;20549;50.042;8.968;2024-01-15T05:35:11;2.30;90.00
30999;DHT22;20549;50.042;8.968;2024-01-15T05:37:40;2.30;90.00
30999;DHT22;20549;50.042;8.968;2024-01-15T05:40:04;2.30;90.10
30999;DHT22;20549;50.042;8.968;2024-01-15T05:42:31;2.30;90.10
30999;DHT22;20549;50.042;8.968;2024-01-15T05:44:58;2.30;90.20
30999;DHT22;20549;50.042;8.968;2024-01-15T05:47:24;2.30;90.20
30999;DHT22;20549;50.042;8.968;2024-01-15T05:49:51;2.30;90.20
30999;DHT22;20549;50.042;8.968;2024-01-15T05:52:17;2.30;90.20
30999;DHT22;20549;50.042;8.968;2024-01-15T05:54:44;2.30;90.10
30999;DHT22;20549;50.042;8.968;2024-01-15T05:57:10;2.40;90.20
30999;DHT22;20549;50.042;8.968;2024-01-15T05:59:37;2.40;90.20
30999;DHT22;20549;50.042;8.968;2024-01-15T06:02:04;2.40;90.30
30999;DHT22;20549;50.042;8.968;2024-01-15T06:04:30;2.40;90.30
30999;DHT22;20549;50.042;8.968;2024-01-15T06:06:57;2.40;90.30
30999;DHT22;20549;50.042;8.968;2024-01-15T06:09:23;2.40;90.30
30999;DHT22;20549;50.042;8.968;2024-01-15T06:11:50;2.40;90.40
30999;DHT22;20549;50.042;8.968;2024-01-15T06:14:17;2.40;90.40
30999;DHT22;20549;50.042;8.968;2024-01-15T06:16:43;2.50;90.40
30999;DHT22;20549;50.042;8.968;2024-01-15T06:19:10;2.50;90.30
30999;DHT22;20549;50.042;8.968;2024-01-15T06:21:36;2.50;90.20
30999;DHT22;20549;50.042;8.968;2024-01-15T06:24:03;2.50;90.60
30999;DHT22;20549;50.042;8.968;2024-01-15T06:26:29;2.50;90.20
30999;DHT22;20549;50.042;8.968;2024-01-15T06:28:56;2.50;90.20
30999;DHT22;20549;50.042;8.968;2024-01-15T06:31:23;2.50;90.30
30999;DHT22;20549;50.042;8.968;2024-01-15T06:33:49;2.50;90.30
30999;DHT22;20549;50.042;8.968;2024-01-15T06:36:16;2.50;90.40
30999;DHT22;20549;50.042;8.968;2024-01-15T06:38:45;2.50;90.30
30999;DHT22;20549;50.042;8.968;2024-01-15T06:41:12;2.50;90.40
30999;DHT22;20549;50.042;8.968;2024-01-15T06:43:38;2.50;90.40
30999;DHT22;20549;50.042;8.968;2024-01-15T06:46:05;2.50;90.40
30999;DHT22;20549;50.042;8.968;2024-01-15T06:48:31;2.50;90.50
30999;DHT22;20549;50.042;8.968;2024-01-15T06:50:58;2.50;90.60
30999;DHT22;20549;50.042;8.968;2024-01-15T06:53:25;2.50;90.60
30999;DHT22;20549;50.042;8.968;2024-01-15T06:55:51;2.50;90.70
30999;DHT22;20549;50.042;8.968;2024-01-15T06:58:18;2.50;90.70
30999;DHT22;20549;50.042;8.968;2024-01-15T07:00:44;2.50;90.70
30999;DHT22;20549;50.042;8.968;2024-01-15T07:03:11;2.50;90.80
30999;DHT22;20549;50.042;8.968;2024-01-15T07:05:38;2.50;90.80
30999;DHT22;20549;50.042;8.968;2024-01-15T07:08:04;2.50;91.00
30999;DHT22;20549;50.042;8.968;2024-01-15T07:10:31;2.50;90.90
30999;DHT22;20549;50.042;8.968;2024-01-15T07:12:57;2.50;90.90
30999;DHT22;20549;50.042;8.968;2024-01-15T07:15:24;2.50;91.00
30999;DHT22;20549;50.042;8.968;2024-01-15T07:17:51;2.40;91.20
30999;DHT22;20549;50.042;8.968;2024-01-15T07:20:17;2.40;91.10
30999;DHT22;20549;50.042;8.968;2024-01-15T07:22:44;2.40;91.20
30999;DHT22;20549;50.042;8.968;2024-01-15T07:25:10;2.40;91.30
30999;DHT22;20549;50.042;8.968;2024-01-15T07:27:37;2.40;91.30
30999;DHT22;20549;50.042;8.968;2024-01-15T07:30:03;2.40;91.00
30999;DHT22;20549;50.042;8.968;2024-01-15T07:32:30;2.40;91.30
30999;DHT22;20549;50.042;8.968;2024-01-15T07:34:57;2.30;91.30
30999;DHT22;20549;50.042;8.968;2024-01-15T07:37:23;2.30;91.40
30999;DHT22;20549;50.042;8.968;2024-01-15T07:39:50;2.30;91.50
30999;DHT22;20549;50.042;8.968;2024-01-15T07:42:16;2.30;91.70
30999;DHT22;20549;50.042;8.968;2024-01-15T07:44:43;2.40;91.80
30999;DHT22;20549;50.042;8.968;2024-01-15T07:47:10;2.40;91.90
30999;DHT22;20549;50.042;8.968;2024-01-15T07:49:37;2.40;92.00
30999;DHT22;20549;50.042;8.968;2024-01-15T07:52:04;2.40;92.00
30999;DHT22;20549;50.042;8.968;2024-01-15T07:54:31;2.50;92.00
30999;DHT22;20549;50.042;8.968;2024-01-15T07:56:58;2.50;92.20
30999;DHT22;20549;50.042;8.968;2024-01-15T07:59:24;2.50;92.00
30999;DHT22;20549;50.042;8.968;2024-01-15T08:01:51;2.60;92.10
30999;DHT22;20549;50.042;8.968;2024-01-15T08:04:17;2.60;92.20
30999;DHT22;20549;50.042;8.968;2024-01-15T08:06:43;2.70;92.20
30999;DHT22;20549;50.042;8.968;2024-01-15T08:09:10;2.70;92.40
30999;DHT22;20549;50.042;8.968;2024-01-15T08:11:39;2.80;92.50
30999;DHT22;20549;50.042;8.968;2024-01-15T08:14:03;2.90;92.70
30999;DHT22;20549;50.042;8.968;2024-01-15T08:16:30;3.00;92.80
30999;DHT22;20549;50.042;8.968;2024-01-15T08:18:56;3.10;92.90
30999;DHT22;20549;50.042;8.968;2024-01-15T08:21:23;3.20;92.90
30999;DHT22;20549;50.042;8.968;2024-01-15T08:23:49;3.20;92.70
30999;DHT22;20549;50.042;8.968;2024-01-15T08:26:16;3.30;92.60
30999;DHT22;20549;50.042;8.968;2024-01-15T08:28:43;3.40;92.30
30999;DHT22;20549;50.042;8.968;2024-01-15T08:31:09;3.50;92.10
30999;DHT22;20549;50.042;8.968;2024-01-15T08:33:36;3.50;91.90
30999;DHT22;20549;50.042;8.968;2024-01-15T08:36:02;3.50;91.70
30999;DHT22;20549;50.042;8.968;2024-01-15T08:38:32;3.60;91.90
30999;DHT22;20549;50.042;8.968;2024-01-15T08:40:58;3.60;91.80
30999;DHT22;20549;50.042;8.968;2024-01-15T08:43:25;3.60;91.70
30999;DHT22;20549;50.042;8.968;2024-01-15T08:45:51;3.60;91.60
30999;DHT22;20549;50.042;8.968;2024-01-15T08:48:18;3.60;91.60
30999;DHT22;20549;50.042;8.968;2024-01-15T08:50:45;3.60;91.50
30999;DHT22;20549;50.042;8.968;2024-01-15T08:53:14;3.60;91.60
30999;DHT22;20549;50.042;8.968;2024-01-15T08:55:40;3.60;91.50
30999;DHT22;20549;50.042;8.968;2024-01-15T08:58:07;3.60;91.50
30999;DHT22;20549;50.042;8.968;2024-01-15T09:00:33;3.60;91.60
30999;DHT22;20549;50.042;8.968;2024-01-15T09:03:00;3.60;91.60
30999;DHT22;20549;50.042;8.968;2024-01-15T09:05:27;3.60;91.50
30999;DHT22;20549;50.042;8.968;2024-01-15T09:07:56;3.60;91.40
30999;DHT22;20549;50.042;8.968;2024-01-15T09:10:20;3.60;91.30
30999;DHT22;20549;50.042;8.968;2024-01-15T09:12:46;3.60;91.20
30999;DHT22;20549;50.042;8.968;2024-01-15T09:15:13;3.60;91.10
30999;DHT22;20549;50.042;8.968;2024-01-15T09:17:40;3.60;90.90
30999;DHT22;20549;50.042;8.968;2024-01-15T09:20:06;3.60;90.90
30999;DHT22;20549;50.042;8.968;2024-01-15T09:22:33;3.60;90.80
30999;DHT22;20549;50.042;8.968;2024-01-15T09:24:59;3.60;90.80
30999;DHT22;20549;50.042;8.968;2024-01-15T09:27:26;3.60;90.90
30999;DHT22;20549;50.042;8.968;2024-01-15T09:29:53;3.60;91.10
30999;DHT22;20549;50.042;8.968;2024-01-15T09:32:19;3.60;91.30
30999;DHT22;20549;50.042;8.968;2024-01-15T09:34:46;3.60;91.40
30999;DHT22;20549;50.042;8.968;2024-01-15T09:37:16;3.70;91.50
30999;DHT22;20549;50.042;8.968;2024-01-15T09:39:39;3.70;91.60
30999;DHT22;20549;50.042;8.968;2024-01-15T09:42:06;3.80;91.70
30999;DHT22;20549;50.042;8.968;2024-01-15T09:44:32;3.90;91.70
30999;DHT22;20549;50.042;8.968;2024-01-15T09:46:59;4.00;91.70
30999;DHT22;20549;50.042;8.968;2024-01-15T09:49:25;4.00;91.70
30999;DHT22;20549;50.042;8.968;2024-01-15T09:51:52;4.10;91.60
30999;DHT22;20549;50.042;8.968;2024-01-15T09:54:19;4.20;91.50
30999;DHT22;20549;50.042;8.968;2024-01-15T09:56:48;4.20;91.20
30999;DHT22;20549;50.042;8.968;2024-01-15T09:59:17;4.30;91.00
30999;DHT22;20549;50.042;8.968;2024-01-15T10:01:44;4.30;90.90
30999;DHT22;20549;50.042;8.968;2024-01-15T10:04:13;4.40;90.90
30999;DHT22;20549;50.042;8.968;2024-01-15T10:06:50;4.50;91.10
30999;DHT22;20549;50.042;8.968;2024-01-15T10:09:06;4.50;91.20
30999;DHT22;20549;50.042;8.968;2024-01-15T10:11:32;4.60;91.40
30999;DHT22;20549;50.042;8.968;2024-01-15T10:13:59;4.70;91.50
30999;DHT22;20549;50.042;8.968;2024-01-15T10:16:26;4.90;91.40
30999;DHT22;20549;50.042;8.968;2024-01-15T10:18:52;5.00;91.50
30999;DHT22;20549;50.042;8.968;2024-01-15T10:21:19;5.10;91.40
30999;DHT22;20549;50.042;8.968;2024-01-15T10:23:45;5.20;91.30
30999;DHT22;20549;50.042;8.968;2024-01-15T10:26:12;5.40;91.30
30999;DHT22;20549;50.042;8.968;2024-01-15T10:28:39;5.50;91.30
30999;DHT22;20549;50.042;8.968;2024-01-15T10:31:05;5.70;91.20
30999;DHT22;20549;50.042;8.968;2024-01-15T10:33:32;5.80;90.80
30999;DHT22;20549;50.042;8.968;2024-01-15T10:35:59;5.90;90.40
30999;DHT22;20549;50.042;8.968;2024-01-15T10:38:25;6.00;90.00
30999;DHT22;20549;50.042;8.968;2024-01-15T10:40:54;6.10;89.00
30999;DHT22;20549;50.042;8.968;2024-01-15T10:43:21;6.10;88.00
30999;DHT22;20549;50.042;8.968;2024-01-15T10:45:50;6.10;86.90
30999;DHT22;20549;50.042;8.968;2024-01-15T10:48:14;6.10;86.70
30999;DHT22;20549;50.042;8.968;2024-01-15T10:50:40;6.10;87.20
30999;DHT22;20549;50.042;8.968;2024-01-15T10:53:07;6.10;86.30
30999;DHT22;20549;50.042;8.968;2024-01-15T10:55:33;6.00;86.20
30999;DHT22;20549;50.042;8.968;2024-01-15T10:58:00;6.00;86.10
30999;DHT22;20549;50.042;8.968;2024-01-15T11:00:27;6.00;86.00
30999;DHT22;20549;50.042;8.968;2024-01-15T11:02:53;6.00;85.80
30999;DHT22;20549;50.042;8.968;2024-01-15T11:05:22;6.00;85.70
30999;DHT22;20549;50.042;8.968;2024-01-15T11:07:49;5.90;85.70
30999;DHT22;20549;50.042;8.968;2024-01-15T11:10:38;5.90;85.70
30999;DHT22;20549;50.042;8.968;2024-01-15T11:13:04;5.90;85.80
30999;DHT22;20549;50.042;8.968;2024-01-15T11:15:30;5.90;85.60
30999;DHT22;20549;50.042;8.968;2024-01-15T11:18:00;5.90;85.50
30999;DHT22;20549;50.042;8.968;2024-01-15T11:20:26;5.90;85.40
30999;DHT22;20549;50.042;8.968;2024-01-15T11:22:53;5.80;85.00
30999;DHT22;20549;50.042;8.968;2024-01-15T11:25:19;5.80;84.90
30999;DHT22;20549;50.042;8.968;2024-01-15T11:27:51;5.80;85.00
30999;DHT22;20549;50.042;8.968;2024-01-15T11:30:18;5.70;85.20
30999;DHT22;20549;50.042;8.968;2024-01-15T11:32:44;5.80;85.50
30999;DHT22;20549;50.042;8.968;2024-01-15T11:35:11;5.80;86.10
30999;DHT22;20549;50.042;8.968;2024-01-15T11:43:01;5.90;87.10
30999;DHT22;20549;50.042;8.968;2024-01-15T11:45:27;6.00;87.00
30999;DHT22;20549;50.042;8.968;2024-01-15T11:48:12;6.10;86.70
30999;DHT22;20549;50.042;8.968;2024-01-15T11:50:42;6.20;86.80
30999;DHT22;20549;50.042;8.968;2024-01-15T11:53:13;6.30;87.00
30999;DHT22;20549;50.042;8.968;2024-01-15T11:55:35;6.30;86.80
30999;DHT22;20549;50.042;8.968;2024-01-15T11:58:13;6.40;86.80
30999;DHT22;20549;50.042;8.968;2024-01-15T12:00:30;6.50;86.40
30999;DHT22;20549;50.042;8.968;2024-01-15T12:02:58;6.60;85.60
30999;DHT22;20549;50.042;8.968;2024-01-15T12:05:24;6.60;85.00
30999;DHT22;20549;50.042;8.968;2024-01-15T12:07:50;6.70;84.80
30999;DHT22;20549;50.042;8.968;2024-01-15T12:10:18;6.70;84.20
30999;DHT22;20549;50.042;8.968;2024-01-15T12:12:53;6.70;83.50
30999;DHT22;20549;50.042;8.968;2024-01-15T12:15:16;6.70;82.90
30999;DHT22;20549;50.042;8.968;2024-01-15T12:17:43;6.70;82.80
30999;DHT22;20549;50.042;8.968;2024-01-15T12:20:10;6.60;82.60
30999;DHT22;20549;50.042;8.968;2024-01-15T12:22:36;6.50;82.30
30999;DHT22;20549;50.042;8.968;2024-01-15T12:25:03;6.50;82.20
30999;DHT22;20549;50.042;8.968;2024-01-15T12:27:29;6.50;82.30
30999;DHT22;20549;50.042;8.968;2024-01-15T12:29:57;6.40;82.30
30999;DHT22;20549;50.042;8.968;2024-01-15T12:32:23;6.30;82.00
30999;DHT22;20549;50.042;8.968;2024-01-15T12:34:49;6.30;82.10
30999;DHT22;20549;50.042;8.968;2024-01-15T12:37:19;6.20;82.00
30999;DHT22;20549;50.042;8.968;2024-01-15T12:39:45;6.20;82.00
30999;DHT22;20549;50.042;8.968;2024-01-15T12:42:13;6.10;81.90
30999;DHT22;20549;50.042;8.968;2024-01-15T12:44:38;6.10;82.10
30999;DHT22;20549;50.042;8.968;2024-01-15T12:47:05;6.00;82.20
30999;DHT22;20549;50.042;8.968;2024-01-15T12:49:31;5.90;82.30
30999;DHT22;20549;50.042;8.968;2024-01-15T12:51:58;5.90;82.50
30999;DHT22;20549;50.042;8.968;2024-01-15T12:54:25;5.80;82.70
30999;DHT22;20549;50.042;8.968;2024-01-15T12:56:51;5.80;82.90
30999;DHT22;20549;50.042;8.968;2024-01-15T12:59:18;5.80;83.20
30999;DHT22;20549;50.042;8.968;2024-01-15T13:01:45;5.80;83.30
30999;DHT22;20549;50.042;8.968;2024-01-15T13:04:11;5.80;83.50
30999;DHT22;20549;50.042;8.968;2024-01-15T13:06:37;5.80;83.60
30999;DHT22;20549;50.042;8.968;2024-01-15T13:09:04;5.80;83.80
30999;DHT22;20549;50.042;8.968;2024-01-15T13:11:33;5.80;83.90
30999;DHT22;20549;50.042;8.968;2024-01-15T13:14:00;5.80;84.10
30999;DHT22;20549;50.042;8.968;2024-01-15T13:16:27;5.80;84.20
30999;DHT22;20549;50.042;8.968;2024-01-15T13:18:53;5.80;84.40
30999;DHT22;20549;50.042;8.968;2024-01-15T13:21:20;5.80;84.40
30999;DHT22;20549;50.042;8.968;2024-01-15T13:23:46;5.80;84.50
30999;DHT22;20549;50.042;8.968;2024-01-15T13:26:13;5.80;84.50
30999;DHT22;20549;50.042;8.968;2024-01-15T13:28:39;5.90;84.60
30999;DHT22;20549;50.042;8.968;2024-01-15T13:31:06;5.90;84.40
30999;DHT22;20549;50.042;8.968;2024-01-15T13:33:33;5.90;84.40
30999;DHT22;20549;50.042;8.968;2024-01-15T13:35:59;6.00;84.60
30999;DHT22;20549;50.042;8.968;2024-01-15T13:38:26;6.00;84.80
30999;DHT22;20549;50.042;8.968;2024-01-15T13:40:52;6.00;84.60
30999;DHT22;20549;50.042;8.968;2024-01-15T13:43:19;6.10;84.70
30999;DHT22;20549;50.042;8.968;2024-01-15T13:45:46;6.10;84.70
30999;DHT22;20549;50.042;8.968;2024-01-15T13:48:12;6.20;84.60
30999;DHT22;20549;50.042;8.968;2024-01-15T13:50:39;6.20;84.50
30999;DHT22;20549;50.042;8.968;2024-01-15T13:53:05;6.30;84.50
30999;DHT22;20549;50.042;8.968;2024-01-15T13:55:32;6.30;84.50
30999;DHT22;20549;50.042;8.968;2024-01-15T13:57:59;6.40;84.30
30999;DHT22;20549;50.042;8.968;2024-01-15T14:00:25;6.50;84.20
30999;DHT22;20549;50.042;8.968;2024-01-15T14:02:52;6.50;84.00
30999;DHT22;20549;50.042;8.968;2024-01-15T14:05:18;6.50;83.60
30999;DHT22;20549;50.042;8.968;2024-01-15T14:07:45;6.60;83.50
30999;DHT22;20549;50.042;8.968;2024-01-15T14:10:11;6.60;83.20
30999;DHT22;20549;50.042;8.968;2024-01-15T14:12:38;6.60;82.90
30999;DHT22;20549;50.042;8.968;2024-01-15T14:15:05;6.60;83.30
30999;DHT22;20549;50.042;8.968;2024-01-15T14:17:31;6.60;82.50
30999;DHT22;20549;50.042;8.968;2024-01-15T14:19:58;6.60;82.30
30999;DHT22;20549;50.042;8.968;2024-01-15T14:22:24;6.60;82.20
30999;DHT22;20549;50.042;8.968;2024-01-15T14:24:51;6.60;82.10
30999;DHT22;20549;50.042;8.968;2024-01-15T14:27:18;6.50;82.10
30999;DHT22;20549;50.042;8.968;2024-01-15T14:29:44;6.50;82.00
30999;DHT22;20549;50.042;8.968;2024-01-15T14:32:11;6.50;81.90
30999;DHT22;20549;50.042;8.968;2024-01-15T14:34:37;6.50;82.00
30999;DHT22;20549;50.042;8.968;2024-01-15T14:37:04;6.50;81.80
30999;DHT22;20549;50.042;8.968;2024-01-15T14:39:31;6.50;81.90
30999;DHT22;20549;50.042;8.968;2024-01-15T14:41:57;6.40;81.80
30999;DHT22;20549;50.042;8.968;2024-01-15T14:44:24;6.40;81.70
30999;DHT22;20549;50.042;8.968;2024-01-15T14:46:50;6.40;81.50
30999;DHT22;20549;50.042;8.968;2024-01-15T14:49:17;6.40;81.50
30999;DHT22;20549;50.042;8.968;2024-01-15T14:51:43;6.40;81.50
30999;DHT22;20549;50.042;8.968;2024-01-15T14:54:10;6.30;81.50
30999;DHT22;20549;50.042;8.968;2024-01-15T14:56:37;6.30;81.70
30999;DHT22;20549;50.042;8.968;2024-01-15T14:59:03;6.30;81.70
30999;DHT22;20549;50.042;8.968;2024-01-15T15:01:30;6.30;81.80
30999;DHT22;20549;50.042;8.968;2024-01-15T15:03:56;6.30;81.60
30999;DHT22;20549;50.042;8.968;2024-01-15T15:06:23;6.30;81.50
30999;DHT22;20549;50.042;8.968;2024-01-15T15:08:50;6.30;81.60
30999;DHT22;20549;50.042;8.968;2024-01-15T15:11:16;6.30;81.70
30999;DHT22;20549;50.042;8.968;2024-01-15T15:13:43;6.20;81.50
30999;DHT22;20549;50.042;8.968;2024-01-15T15:16:09;6.20;81.50
30999;DHT22;20549;50.042;8.968;2024-01-15T15:18:36;6.20;81.50
30999;DHT22;20549;50.042;8.968;2024-01-15T15:21:02;6.20;81.40
30999;DHT22;20549;50.042;8.968;2024-01-15T15:23:29;6.20;81.40
30999;DHT22;20549;50.042;8.968;2024-01-15T15:25:56;6.20;81.40
30999;DHT22;20549;50.042;8.968;2024-01-15T15:28:22;6.20;81.40
30999;DHT22;20549;50.042;8.968;2024-01-15T15:30:49;6.20;81.40
30999;DHT22;20549;50.042;8.968;2024-01-15T15:33:15;6.20;81.10
30999;DHT22;20549;50.042;8.968;2024-01-15T15:35:42;6.20;81.00
30999;DHT22;20549;50.042;8.968;2024-01-15T15:38:09;6.20;81.10
30999;DHT22;20549;50.042;8.968;2024-01-15T15:40:35;6.20;81.20
30999;DHT22;20549;50.042;8.968;2024-01-15T15:43:02;6.20;81.00
30999;DHT22;20549;50.042;8.968;2024-01-15T15:45:28;6.20;81.00